sensor_id;sensor_type;location;lat;lon;timestamp;pressure;altitude;pressure_sealevel;temperature;humidity
18323;BME280;9287;49.456;11.064;2023-03-14T00:02:26;96409.22;;;9.38;100.00
18323;BME280;9287;49.456;11.064;2023-03-14T00:04:54;96429.44;;;9.37;100.00
18323;BME280;9287;49.456;11.064;2023-03-14T00:07:24;96427.94;;;9.43;100.00
18323;BME280;9287;49.456;11.064;2023-03-14T00:09:52;96434.13;;;9.40;100.00
18323;BME280;9287;49.456;11.064;2023-03-14T00:12:19;96435.75;;;9.48;100.00
18323;BME280;9287;49.456;11.064;2023-03-14T00:14:47;96435.75;;;9.48;100.00
18323;BME280;9287;49.456;11.064;2023-03-14T00:17:15;96431.47;;;9.47;100.00
18323;BME280;9287;49.456;11.064;2023-03-14T00:19:42;96431.00;;;9.38;100.00
18323;BME280;9287;49.456;11.064;2023-03-14T00:22:10;96431.81;;;9.42;100.00
18323;BME280;9287;49.456;11.064;2023-03-14T00:24:39;96456.31;;;9.35;100.00
18323;BME280;9287;49.456;11.064;2023-03-14T00:27:07;96445.03;;;9.40;100.00
18323;BME280;9287;49.456;11.064;2023-03-14T00:29:35;96452.81;;;9.38;100.00
18323;BME280;9287;49.456;11.064;2023-03-14T00:32:03;96452.81;;;9.38;100.00
18323;BME280;9287;49.456;11.064;2023-03-14T00:34:33;96446.63;;;9.45;100.00
18323;BME280;9287;49.456;11.064;2023-03-14T00:37:01;96469.94;;;9.42;100.00
18323;BME280;9287;49.456;11.064;2023-03-14T00:39:29;96483.94;;;9.33;100.00
18323;BME280;9287;49.456;11.064;2023-03-14T00:41:58;96478.44;;;9.26;100.00
18323;BME280;9287;49.456;11.064;2023-03-14T00:44:26;96478.44;;;9.30;100.00
18323;BME280;9287;49.456;11.064;2023-03-14T00:46:56;96483.91;;;9.30;100.00
18323;BME280;9287;49.456;11.064;2023-03-14T00:49:24;96486.28;;;9.35;100.00
18323;BME280;9287;49.456;11.064;2023-03-14T00:51:51;96487.06;;;9.39;100.00
18323;BME280;9287;49.456;11.064;2023-03-14T00:54:20;96487.81;;;9.36;100.00
18323;BME280;9287;49.456;11.064;2023-03-14T00:56:47;96501.09;;;9.45;100.00
18323;BME280;9287;49.456;11.064;2023-03-14T00:59:17;96507.38;;;9.52;100.00
18323;BME280;9287;49.456;11.064;2023-03-14T01:01:44;96497.66;;;9.51;100.00
18323;BME280;9287;49.456;11.064;2023-03-14T01:04:12;96494.13;;;9.54;100.00
18323;BME280;9287;49.456;11.064;2023-03-14T01:06:40;96480.91;;;9.49;100.00
18323;BME280;9287;49.456;11.064;2023-03-14T01:09:08;96465.34;;;9.57;100.00
18323;BME280;9287;49.456;11.064;2023-03-14T01:11:36;96455.97;;;9.47;100.00
18323;BME280;9287;49.456;11.064;2023-03-14T01:14:03;96443.13;;;9.48;100.00
18323;BME280;9287;49.456;11.064;2023-03-14T01:16:34;96427.16;;;9.46;100.00
18323;BME280;9287;49.456;11.064;2023-03-14T01:19:03;96428.38;;;9.52;100.00
18323;BME280;9287;49.456;11.064;2023-03-14T01:21:32;96431.13;;;9.59;100.00
18323;BME280;9287;49.456;11.064;2023-03-14T01:24:03;96427.97;;;9.54;100.00
18323;BME280;9287;49.456;11.064;2023-03-14T01:26:32;96448.97;;;9.53;100.00
18323;BME280;9287;49.456;11.064;2023-03-14T01:29:01;96427.22;;;9.57;100.00
18323;BME280;9287;49.456;11.064;2023-03-14T01:31:29;96414.38;;;9.57;100.00
18323;BME280;9287;49.456;11.064;2023-03-14T01:33:59;96394.13;;;9.51;100.00
18323;BME280;9287;49.456;11.064;2023-03-14T01:36:27;96387.47;;;9.45;100.00
18323;BME280;9287;49.456;11.064;2023-03-14T01:38:57;96407.75;;;9.51;100.00
18323;BME280;9287;49.456;11.064;2023-03-14T01:41:25;96408.50;;;9.55;100.00
18323;BME280;9287;49.456;11.064;2023-03-14T01:43:53;96404.63;;;9.56;100.00
18323;BME280;9287;49.456;11.064;2023-03-14T01:46:28;96412.41;;;9.54;100.00
18323;BME280;9287;49.456;11.064;2023-03-14T01:49:04;96410.88;;;9.60;100.00
18323;BME280;9287;49.456;11.064;2023-03-14T01:51:36;96418.66;;;9.58;100.00
18323;BME280;9287;49.456;11.064;2023-03-14T01:54:10;96420.19;;;9.52;100.00
18323;BME280;9287;49.456;11.064;2023-03-14T01:56:40;96424.88;;;9.55;100.00
18323;BME280;9287;49.456;11.064;2023-03-14T01:59:10;96437.31;;;9.53;100.00
18323;BME280;9287;49.456;11.064;2023-03-14T02:01:41;96449.84;;;9.64;100.00
18323;BME280;9287;49.456;11.064;2023-03-14T02:04:11;96451.78;;;9.67;100.00
18323;BME280;9287;49.456;11.064;2023-03-14T02:06:46;96456.84;;;9.65;100.00
18323;BME280;9287;49.456;11.064;2023-03-14T02:09:15;96453.72;;;9.63;100.00
18323;BME280;9287;49.456;11.064;2023-03-14T02:11:44;96451.41;;;9.72;100.00
18323;BME280;9287;49.456;11.064;2023-03-14T02:14:19;96445.19;;;9.68;100.00
18323;BME280;9287;49.456;11.064;2023-03-14T02:16:47;96436.63;;;9.73;100.00
18323;BME280;9287;49.456;11.064;2023-03-14T02:19:20;96434.28;;;9.72;100.00
18323;BME280;9287;49.456;11.064;2023-03-14T02:21:56;96421.03;;;9.67;100.00
18323;BME280;9287;49.456;11.064;2023-03-14T02:24:32;96418.28;;;9.63;100.00
18323;BME280;9287;49.456;11.064;2023-03-14T02:27:08;96406.22;;;9.64;100.00
18323;BME280;9287;49.456;11.064;2023-03-14T02:29:40;96401.59;;;9.75;100.00
18323;BME280;9287;49.456;11.064;2023-03-14T02:32:11;96404.28;;;9.65;100.00
18323;BME280;9287;49.456;11.064;2023-03-14T02:34:41;96396.09;;;9.61;100.00
18323;BME280;9287;49.456;11.064;2023-03-14T02:37:11;96394.53;;;9.60;100.00
18323;BME280;9287;49.456;11.064;2023-03-14T02:39:42;96396.84;;;9.58;100.00
18323;BME280;9287;49.456;11.064;2023-03-14T02:42:13;96385.97;;;9.62;100.00
18323;BME280;9287;49.456;11.064;2023-03-14T02:44:49;96387.53;;;9.59;100.00
18323;BME280;9287;49.456;11.064;2023-03-14T02:47:19;96377.38;;;9.56;100.00
18323;BME280;9287;49.456;11.064;2023-03-14T02:49:47;96379.72;;;9.58;100.00
18323;BME280;9287;49.456;11.064;2023-03-14T02:52:15;96370.38;;;9.59;100.00
18323;BME280;9287;49.456;11.064;2023-03-14T02:54:43;96378.53;;;9.55;100.00
18323;BME280;9287;49.456;11.064;2023-03-14T02:57:12;96363.44;;;9.68;100.00
18323;BME280;9287;49.456;11.064;2023-03-14T02:59:40;96361.06;;;9.63;100.00
18323;BME280;9287;49.456;11.064;2023-03-14T03:02:08;96362.59;;;9.50;100.00
18323;BME280;9287;49.456;11.064;2023-03-14T03:04:35;96352.47;;;9.47;100.00
18323;BME280;9287;49.456;11.064;2023-03-14T03:07:03;96355.19;;;9.54;100.00
18323;BME280;9287;49.456;11.064;2023-03-14T03:09:31;96359.47;;;9.48;100.00
18323;BME280;9287;49.456;11.064;2023-03-14T03:11:59;96361.00;;;9.46;100.00
18323;BME280;9287;49.456;11.064;2023-03-14T03:14:28;96375.00;;;9.44;100.00
18323;BME280;9287;49.456;11.064;2023-03-14T03:16:55;96364.88;;;9.41;100.00
18323;BME280;9287;49.456;11.064;2023-03-14T03:19:23;96365.22;;;9.29;100.00
18323;BME280;9287;49.456;11.064;2023-03-14T03:21:51;96351.59;;;9.25;100.00
18323;BME280;9287;49.456;11.064;2023-03-14T03:24:19;96358.56;;;9.23;100.00
18323;BME280;9287;49.456;11.064;2023-03-14T03:26:46;96353.88;;;9.20;100.00
18323;BME280;9287;49.456;11.064;2023-03-14T03:29:14;96346.09;;;9.11;100.00
18323;BME280;9287;49.456;11.064;2023-03-14T03:31:44;96346.91;;;9.22;100.00
18323;BME280;9287;49.456;11.064;2023-03-14T03:34:12;96334.44;;;9.14;100.00
18323;BME280;9287;49.456;11.064;2023-03-14T03:36:40;96347.66;;;9.16;100.00
18323;BME280;9287;49.456;11.064;2023-03-14T03:39:08;96333.66;;;9.14;100.00
18323;BME280;9287;49.456;11.064;2023-03-14T03:41:36;96355.03;;;9.12;100.00
18323;BME280;9287;49.456;11.064;2023-03-14T03:44:04;96351.09;;;9.05;100.00
18323;BME280;9287;49.456;11.064;2023-03-14T03:46:32;96353.06;;;9.08;100.00
18323;BME280;9287;49.456;11.064;2023-03-14T03:49:01;96348.41;;;9.09;100.00
18323;BME280;9287;49.456;11.064;2023-03-14T03:51:29;96350.75;;;9.11;100.00
18323;BME280;9287;49.456;11.064;2023-03-14T03:53:57;96346.88;;;9.12;100.00
18323;BME280;9287;49.456;11.064;2023-03-14T03:56:24;96351.53;;;9.15;100.00
18323;BME280;9287;49.456;11.064;2023-03-14T03:58:52;96335.97;;;9.12;100.00
18323;BME280;9287;49.456;11.064;2023-03-14T04:01:20;96327.44;;;9.20;100.00
18323;BME280;9287;49.456;11.064;2023-03-14T04:03:47;96331.34;;;9.16;100.00
18323;BME280;9287;49.456;11.064;2023-03-14T04:06:17;96321.97;;;9.10;100.00
18323;BME280;9287;49.456;11.064;2023-03-14T04:08:44;96314.16;;;9.08;100.00
18323;BME280;9287;49.456;11.064;2023-03-14T04:11:12;96316.47;;;9.02;100.00
18323;BME280;9287;49.456;11.064;2023-03-14T04:13:42;96309.47;;;9.01;100.00
18323;BME280;9287;49.456;11.064;2023-03-14T04:16:14;96305.59;;;9.02;100.00
18323;BME280;9287;49.456;11.064;2023-03-14T04:18:43;96297.06;;;9.11;100.00
18323;BME280;9287;49.456;11.064;2023-03-14T04:21:10;96304.06;;;9.08;100.00
18323;BME280;9287;49.456;11.064;2023-03-14T04:23:39;96310.31;;;9.13;100.00
18323;BME280;9287;49.456;11.064;2023-03-14T04:26:07;96296.25;;;9.03;100.00
18323;BME280;9287;49.456;11.064;2023-03-14T04:28:35;96290.81;;;9.03;100.00
18323;BME280;9287;49.456;11.064;2023-03-14T04:31:06;96288.09;;;9.03;100.00
18323;BME280;9287;49.456;11.064;2023-03-14T04:33:34;96283.41;;;9.00;100.00
18323;BME280;9287;49.456;11.064;2023-03-14T04:36:04;96291.91;;;8.88;100.00
18323;BME280;9287;49.456;11.064;2023-03-14T04:38:32;96289.94;;;8.85;100.00
18323;BME280;9287;49.456;11.064;2023-03-14T04:41:01;96293.09;;;8.91;100.00
18323;BME280;9287;49.456;11.064;2023-03-14T04:43:30;96297.72;;;8.83;100.00
18323;BME280;9287;49.456;11.064;2023-03-14T04:45:58;96295.38;;;8.85;100.00
18323;BME280;9287;49.456;11.064;2023-03-14T04:48:26;96298.50;;;8.87;100.00
18323;BME280;9287;49.456;11.064;2023-03-14T04:50:54;96300.44;;;8.83;100.00
18323;BME280;9287;49.456;11.064;2023-03-14T04:53:22;96302.41;;;8.86;100.00
18323;BME280;9287;49.456;11.064;2023-03-14T04:55:51;96302.78;;;8.88;100.00
18323;BME280;9287;49.456;11.064;2023-03-14T04:58:20;96311.72;;;8.85;100.00
18323;BME280;9287;49.456;11.064;2023-03-14T05:00:48;96310.59;;;8.90;100.00
18323;BME280;9287;49.456;11.064;2023-03-14T05:03:17;96308.66;;;8.90;100.00
18323;BME280;9287;49.456;11.064;2023-03-14T05:05:45;96303.97;;;8.87;100.00
18323;BME280;9287;49.456;11.064;2023-03-14T05:08:13;96303.56;;;8.85;100.00
18323;BME280;9287;49.456;11.064;2023-03-14T05:10:40;96321.03;;;8.77;100.00
18323;BME280;9287;49.456;11.064;2023-03-14T05:13:08;96313.28;;;8.83;100.00
18323;BME280;9287;49.456;11.064;2023-03-14T05:15:37;96313.25;;;8.79;100.00
18323;BME280;9287;49.456;11.064;2023-03-14T05:18:05;96296.53;;;8.77;100.00
18323;BME280;9287;49.456;11.064;2023-03-14T05:20:33;96297.69;;;8.76;100.00
18323;BME280;9287;49.456;11.064;2023-03-14T05:23:01;96281.31;;;8.69;100.00
18323;BME280;9287;49.456;11.064;2023-03-14T05:25:29;96282.47;;;8.68;100.00
18323;BME280;9287;49.456;11.064;2023-03-14T05:27:58;96289.47;;;8.65;100.00
18323;BME280;9287;49.456;11.064;2023-03-14T05:30:25;96272.00;;;8.70;100.00
18323;BME280;9287;49.456;11.064;2023-03-14T05:32:55;96273.59;;;8.78;100.00
18323;BME280;9287;49.456;11.064;2023-03-14T05:35:23;96267.03;;;8.83;100.00
18323;BME280;9287;49.456;11.064;2023-03-14T05:37:51;96269.72;;;8.79;100.00
18323;BME280;9287;49.456;11.064;2023-03-14T05:40:19;96264.63;;;8.74;100.00
18323;BME280;9287;49.456;11.064;2023-03-14T05:42:46;96258.03;;;8.75;100.00
18323;BME280;9287;49.456;11.064;2023-03-14T05:45:14;96256.50;;;8.81;100.00
18323;BME280;9287;49.456;11.064;2023-03-14T05:47:42;96251.06;;;8.81;100.00
18323;BME280;9287;49.456;11.064;2023-03-14T05:50:11;96244.88;;;8.88;100.00
18323;BME280;9287;49.456;11.064;2023-03-14T05:52:39;96248.72;;;8.83;100.00
18323;BME280;9287;49.456;11.064;2023-03-14T05:55:07;96247.97;;;8.86;100.00
18323;BME280;9287;49.456;11.064;2023-03-14T05:57:35;96248.34;;;8.81;100.00
18323;BME280;9287;49.456;11.064;2023-03-14T06:00:04;96247.56;;;8.77;100.00
18323;BME280;9287;49.456;11.064;2023-03-14T06:02:32;96258.03;;;8.75;100.00
18323;BME280;9287;49.456;11.064;2023-03-14T06:04:59;96251.03;;;8.74;100.00
18323;BME280;9287;49.456;11.064;2023-03-14T06:07:28;96251.38;;;8.65;100.00
18323;BME280;9287;49.456;11.064;2023-03-14T06:09:56;96247.91;;;8.72;100.00
18323;BME280;9287;49.456;11.064;2023-03-14T06:12:24;96244.78;;;8.70;100.00
18323;BME280;9287;49.456;11.064;2023-03-14T06:14:52;96255.66;;;8.70;100.00
18323;BME280;9287;49.456;11.064;2023-03-14T06:17:20;96254.16;;;8.83;100.00
18323;BME280;9287;49.456;11.064;2023-03-14T06:19:48;96260.00;;;8.85;100.00
18323;BME280;9287;49.456;11.064;2023-03-14T06:22:16;96262.81;;;8.99;100.00
18323;BME280;9287;49.456;11.064;2023-03-14T06:24:45;96252.72;;;9.11;100.00
18323;BME280;9287;49.456;11.064;2023-03-14T06:27:12;96259.69;;;9.01;100.00
18323;BME280;9287;49.456;11.064;2023-03-14T06:29:40;96251.16;;;9.06;100.00
18323;BME280;9287;49.456;11.064;2023-03-14T06:32:08;96261.22;;;8.91;100.00
18323;BME280;9287;49.456;11.064;2023-03-14T06:34:36;96249.16;;;8.92;100.00
18323;BME280;9287;49.456;11.064;2023-03-14T06:37:04;96255.00;;;8.94;100.00
18323;BME280;9287;49.456;11.064;2023-03-14T06:39:33;96245.69;;;9.02;100.00
18323;BME280;9287;49.456;11.064;2023-03-14T06:42:02;96241.03;;;8.96;100.00
18323;BME280;9287;49.456;11.064;2023-03-14T06:44:30;96247.59;;;8.91;100.00
18323;BME280;9287;49.456;11.064;2023-03-14T06:46:57;96245.69;;;8.95;100.00
18323;BME280;9287;49.456;11.064;2023-03-14T06:49:25;96237.91;;;9.01;100.00
18323;BME280;9287;49.456;11.064;2023-03-14T06:51:53;96248.81;;;9.04;100.00
18323;BME280;9287;49.456;11.064;2023-03-14T06:54:21;96256.59;;;9.02;100.00
18323;BME280;9287;49.456;11.064;2023-03-14T06:56:49;96266.69;;;8.98;100.00
18323;BME280;9287;49.456;11.064;2023-03-14T06:59:18;96263.66;;;9.18;100.00
18323;BME280;9287;49.456;11.064;2023-03-14T07:01:46;96267.53;;;9.17;100.00
18323;BME280;9287;49.456;11.064;2023-03-14T07:04:14;96272.91;;;9.02;100.00
18323;BME280;9287;49.456;11.064;2023-03-14T07:06:42;96267.88;;;9.08;100.00
18323;BME280;9287;49.456;11.064;2023-03-14T07:09:13;96268.31;;;9.21;100.00
18323;BME280;9287;49.456;11.064;2023-03-14T07:11:41;96266.03;;;9.30;100.00
18323;BME280;9287;49.456;11.064;2023-03-14T07:14:09;96273.00;;;9.24;100.00
18323;BME280;9287;49.456;11.064;2023-03-14T07:16:38;96272.50;;;9.00;100.00
18323;BME280;9287;49.456;11.064;2023-03-14T07:19:06;96269.06;;;9.11;100.00
18323;BME280;9287;49.456;11.064;2023-03-14T07:21:33;96276.88;;;9.16;100.00
18323;BME280;9287;49.456;11.064;2023-03-14T07:24:02;96272.19;;;9.20;100.00
18323;BME280;9287;49.456;11.064;2023-03-14T07:26:29;96270.63;;;9.12;100.00
18323;BME280;9287;49.456;11.064;2023-03-14T07:28:57;96281.16;;;9.24;100.00
18323;BME280;9287;49.456;11.064;2023-03-14T07:31:25;96274.56;;;9.18;100.00
18323;BME280;9287;49.456;11.064;2023-03-14T07:33:54;96268.69;;;9.19;100.00
18323;BME280;9287;49.456;11.064;2023-03-14T07:36:22;96278.03;;;9.22;100.00
18323;BME280;9287;49.456;11.064;2023-03-14T07:38:50;96273.75;;;9.21;100.00
18323;BME280;9287;49.456;11.064;2023-03-14T07:41:18;96271.44;;;9.23;100.00
18323;BME280;9287;49.456;11.064;2023-03-14T07:43:47;96268.38;;;9.35;100.00
18323;BME280;9287;49.456;11.064;2023-03-14T07:46:15;96267.56;;;9.38;100.00
18323;BME280;9287;49.456;11.064;2023-03-14T07:48:44;96264.84;;;9.31;100.00
18323;BME280;9287;49.456;11.064;2023-03-14T07:51:13;96262.91;;;9.31;100.00
18323;BME280;9287;49.456;11.064;2023-03-14T07:53:40;96267.59;;;9.45;100.00
18323;BME280;9287;49.456;11.064;2023-03-14T07:56:09;96266.06;;;9.62;100.00
18323;BME280;9287;49.456;11.064;2023-03-14T07:58:37;96269.19;;;9.74;100.00
18323;BME280;9287;49.456;11.064;2023-03-14T08:01:05;96269.94;;;9.57;100.00
18323;BME280;9287;49.456;11.064;2023-03-14T08:03:33;96270.78;;;9.97;100.00
18323;BME280;9287;49.456;11.064;2023-03-14T08:06:01;96275.47;;;10.28;100.00
18323;BME280;9287;49.456;11.064;2023-03-14T08:08:30;96268.28;;;10.98;100.00
18323;BME280;9287;49.456;11.064;2023-03-14T08:11:02;96280.75;;;10.99;100.00
18323;BME280;9287;49.456;11.064;2023-03-14T08:13:31;96264.28;;;11.21;100.00
18323;BME280;9287;49.456;11.064;2023-03-14T08:15:59;96276.28;;;12.07;100.00
18323;BME280;9287;49.456;11.064;2023-03-14T08:18:27;96270.16;;;11.89;100.00
18323;BME280;9287;49.456;11.064;2023-03-14T08:20:55;96274.34;;;11.38;100.00
18323;BME280;9287;49.456;11.064;2023-03-14T08:23:22;96265.69;;;11.50;100.00
18323;BME280;9287;49.456;11.064;2023-03-14T08:25:52;96249.19;;;11.68;100.00
18323;BME280;9287;49.456;11.064;2023-03-14T08:28:19;96251.09;;;11.71;100.00
18323;BME280;9287;49.456;11.064;2023-03-14T08:30:47;96255.78;;;11.70;100.00
18323;BME280;9287;49.456;11.064;2023-03-14T08:33:15;96251.06;;;11.12;100.00
18323;BME280;9287;49.456;11.064;2023-03-14T08:35:42;96251.31;;;11.98;100.00
18323;BME280;9287;49.456;11.064;2023-03-14T08:38:10;96256.22;;;12.20;100.00
18323;BME280;9287;49.456;11.064;2023-03-14T08:40:38;96243.31;;;12.21;100.00
18323;BME280;9287;49.456;11.064;2023-03-14T08:43:07;96251.91;;;12.23;100.00
18323;BME280;9287;49.456;11.064;2023-03-14T08:45:35;96247.22;;;12.20;100.00
18323;BME280;9287;49.456;11.064;2023-03-14T08:48:03;96249.25;;;12.53;100.00
18323;BME280;9287;49.456;11.064;2023-03-14T08:50:31;96246.38;;;12.68;100.00
18323;BME280;9287;49.456;11.064;2023-03-14T08:52:59;96248.72;;;12.28;100.00
18323;BME280;9287;49.456;11.064;2023-03-14T08:55:27;96249.53;;;12.25;100.00
18323;BME280;9287;49.456;11.064;2023-03-14T08:57:55;96249.06;;;11.85;100.00
18323;BME280;9287;49.456;11.064;2023-03-14T09:00:24;96237.41;;;11.78;100.00
18323;BME280;9287;49.456;11.064;2023-03-14T09:02:52;96242.13;;;11.70;100.00
18323;BME280;9287;49.456;11.064;2023-03-14T09:05:20;96245.00;;;11.49;100.00
18323;BME280;9287;49.456;11.064;2023-03-14T09:07:47;96244.59;;;11.54;100.00
18323;BME280;9287;49.456;11.064;2023-03-14T09:10:15;96243.81;;;11.54;100.00
18323;BME280;9287;49.456;11.064;2023-03-14T09:12:43;96242.31;;;11.42;100.00
18323;BME280;9287;49.456;11.064;2023-03-14T09:15:11;96244.59;;;11.54;100.00
18323;BME280;9287;49.456;11.064;2023-03-14T09:17:42;96240.22;;;11.60;100.00
18323;BME280;9287;49.456;11.064;2023-03-14T09:20:10;96235.03;;;11.83;100.00
18323;BME280;9287;49.456;11.064;2023-03-14T09:22:40;96225.50;;;12.02;100.00
18323;BME280;9287;49.456;11.064;2023-03-14T09:25:08;96236.94;;;12.31;100.00
18323;BME280;9287;49.456;11.064;2023-03-14T09:27:37;96237.28;;;12.78;100.00
18323;BME280;9287;49.456;11.064;2023-03-14T09:30:05;96229.72;;;13.19;96.51
18323;BME280;9287;49.456;11.064;2023-03-14T09:32:33;96224.22;;;13.23;94.76
18323;BME280;9287;49.456;11.064;2023-03-14T09:35:02;96226.69;;;13.10;92.66
18323;BME280;9287;49.456;11.064;2023-03-14T09:37:30;96230.00;;;12.98;96.48
18323;BME280;9287;49.456;11.064;2023-03-14T09:39:58;96221.22;;;12.80;96.41
18323;BME280;9287;49.456;11.064;2023-03-14T09:42:27;96221.81;;;12.61;99.72
18323;BME280;9287;49.456;11.064;2023-03-14T09:44:57;96230.75;;;12.27;100.00
18323;BME280;9287;49.456;11.064;2023-03-14T09:47:27;96231.78;;;11.96;100.00
18323;BME280;9287;49.456;11.064;2023-03-14T09:49:55;96225.63;;;11.88;100.00
18323;BME280;9287;49.456;11.064;2023-03-14T09:52:28;96237.38;;;11.81;100.00
18323;BME280;9287;49.456;11.064;2023-03-14T09:54:59;96229.97;;;11.78;100.00
18323;BME280;9287;49.456;11.064;2023-03-14T09:57:29;96227.38;;;11.57;100.00
18323;BME280;9287;49.456;11.064;2023-03-14T10:00:02;96227.28;;;11.71;100.00
18323;BME280;9287;49.456;11.064;2023-03-14T10:02:38;96233.50;;;11.75;100.00
18323;BME280;9287;49.456;11.064;2023-03-14T10:05:14;96226.09;;;11.72;100.00
18323;BME280;9287;49.456;11.064;2023-03-14T10:07:43;96220.25;;;11.70;100.00
18323;BME280;9287;49.456;11.064;2023-03-14T10:10:14;96223.41;;;11.65;100.00
18323;BME280;9287;49.456;11.064;2023-03-14T10:12:45;96217.94;;;11.65;100.00
18323;BME280;9287;49.456;11.064;2023-03-14T10:15:14;96223.47;;;11.58;100.00
18323;BME280;9287;49.456;11.064;2023-03-14T10:17:47;96209.44;;;11.56;100.00
18323;BME280;9287;49.456;11.064;2023-03-14T10:20:37;96221.03;;;11.74;100.00
18323;BME280;9287;49.456;11.064;2023-03-14T10:23:19;96210.75;;;11.93;100.00
18323;BME280;9287;49.456;11.064;2023-03-14T10:26:00;96201.38;;;11.90;100.00
18323;BME280;9287;49.456;11.064;2023-03-14T10:28:31;96200.09;;;12.02;100.00
18323;BME280;9287;49.456;11.064;2023-03-14T10:31:00;96207.44;;;12.12;100.00
18323;BME280;9287;49.456;11.064;2023-03-14T10:33:30;96198.78;;;12.17;100.00
18323;BME280;9287;49.456;11.064;2023-03-14T10:36:00;96202.66;;;12.23;100.00
18323;BME280;9287;49.456;11.064;2023-03-14T10:38:30;96198.72;;;12.24;100.00
18323;BME280;9287;49.456;11.064;2023-03-14T10:40:59;96199.31;;;12.42;98.03
18323;BME280;9287;49.456;11.064;2023-03-14T10:43:31;96197.66;;;12.52;95.04
18323;BME280;9287;49.456;11.064;2023-03-14T10:46:02;96199.16;;;12.57;92.97
18323;BME280;9287;49.456;11.064;2023-03-14T10:48:35;96196.97;;;12.44;90.96
18323;BME280;9287;49.456;11.064;2023-03-14T10:51:06;96204.50;;;12.33;93.62
18323;BME280;9287;49.456;11.064;2023-03-14T10:53:42;96207.31;;;12.26;93.88
18323;BME280;9287;49.456;11.064;2023-03-14T10:56:12;96202.69;;;12.19;95.19
18323;BME280;9287;49.456;11.064;2023-03-14T10:58:42;96211.31;;;12.14;94.08
18323;BME280;9287;49.456;11.064;2023-03-14T11:01:29;96209.88;;;12.03;94.43
18323;BME280;9287;49.456;11.064;2023-03-14T11:04:03;96220.13;;;11.92;98.46
18323;BME280;9287;49.456;11.064;2023-03-14T11:06:38;96218.63;;;11.83;100.00
18323;BME280;9287;49.456;11.064;2023-03-14T11:09:15;96228.06;;;11.72;100.00
18323;BME280;9287;49.456;11.064;2023-03-14T11:11:47;96232.03;;;11.60;100.00
18323;BME280;9287;49.456;11.064;2023-03-14T11:14:24;96228.22;;;11.47;100.00
18323;BME280;9287;49.456;11.064;2023-03-14T11:16:57;96225.09;;;11.45;100.00
18323;BME280;9287;49.456;11.064;2023-03-14T11:19:52;96225.06;;;11.52;100.00
18323;BME280;9287;49.456;11.064;2023-03-14T11:22:28;96225.03;;;11.59;100.00
18323;BME280;9287;49.456;11.064;2023-03-14T11:25:09;96236.38;;;11.54;100.00
18323;BME280;9287;49.456;11.064;2023-03-14T11:27:44;96238.31;;;11.57;100.00
18323;BME280;9287;49.456;11.064;2023-03-14T11:30:22;96228.97;;;11.51;100.00
18323;BME280;9287;49.456;11.064;2023-03-14T11:33:00;96229.97;;;11.12;100.00
18323;BME280;9287;49.456;11.064;2023-03-14T11:35:34;96230.59;;;12.45;100.00
18323;BME280;9287;49.456;11.064;2023-03-14T11:38:18;96220.19;;;14.75;100.00
18323;BME280;9287;49.456;11.064;2023-03-14T11:40:49;96214.84;;;16.44;90.14
18323;BME280;9287;49.456;11.064;2023-03-14T11:43:26;96209.59;;;17.20;70.98
18323;BME280;9287;49.456;11.064;2023-03-14T11:46:03;96197.41;;;16.47;71.21
18323;BME280;9287;49.456;11.064;2023-03-14T11:48:37;96191.06;;;17.08;68.69
18323;BME280;9287;49.456;11.064;2023-03-14T11:51:12;96192.63;;;15.54;73.43
18323;BME280;9287;49.456;11.064;2023-03-14T11:53:50;96186.09;;;14.92;82.96
18323;BME280;9287;49.456;11.064;2023-03-14T11:56:29;96186.06;;;14.09;89.67
18323;BME280;9287;49.456;11.064;2023-03-14T11:59:02;96183.66;;;13.38;91.81
18323;BME280;9287;49.456;11.064;2023-03-14T12:01:49;96174.44;;;12.98;98.83
18323;BME280;9287;49.456;11.064;2023-03-14T12:04:26;96183.16;;;12.85;99.38
18323;BME280;9287;49.456;11.064;2023-03-14T12:06:56;96167.81;;;12.95;100.00
18323;BME280;9287;49.456;11.064;2023-03-14T12:09:29;96162.31;;;13.26;97.26
18323;BME280;9287;49.456;11.064;2023-03-14T12:11:59;96167.81;;;15.21;79.18
18323;BME280;9287;49.456;11.064;2023-03-14T12:14:32;96158.06;;;16.18;67.26
18323;BME280;9287;49.456;11.064;2023-03-14T12:17:05;96156.38;;;15.59;66.91
18323;BME280;9287;49.456;11.064;2023-03-14T12:19:35;96163.41;;;15.60;70.62
18323;BME280;9287;49.456;11.064;2023-03-14T12:22:22;96163.06;;;14.86;70.08
18323;BME280;9287;49.456;11.064;2023-03-14T12:24:53;96173.72;;;13.98;75.03
18323;BME280;9287;49.456;11.064;2023-03-14T12:27:47;96164.16;;;13.59;78.20
18323;BME280;9287;49.456;11.064;2023-03-14T12:30:21;96158.69;;;13.59;79.55
18323;BME280;9287;49.456;11.064;2023-03-14T12:36:01;96157.00;;;13.42;77.56
18323;BME280;9287;49.456;11.064;2023-03-14T12:38:39;96144.16;;;13.62;73.30
18323;BME280;9287;49.456;11.064;2023-03-14T12:41:15;96136.97;;;13.68;72.64
18323;BME280;9287;49.456;11.064;2023-03-14T12:43:46;96142.31;;;13.52;74.23
18323;BME280;9287;49.456;11.064;2023-03-14T12:46:19;96143.81;;;13.33;74.36
18323;BME280;9287;49.456;11.064;2023-03-14T12:48:49;96119.81;;;13.14;75.11
18323;BME280;9287;49.456;11.064;2023-03-14T12:51:28;96132.06;;;13.02;77.08
18323;BME280;9287;49.456;11.064;2023-03-14T12:54:24;96132.91;;;12.99;79.98
18323;BME280;9287;49.456;11.064;2023-03-14T12:57:04;96131.38;;;12.98;79.19
18323;BME280;9287;49.456;11.064;2023-03-14T12:59:37;96140.34;;;12.68;84.77
18323;BME280;9287;49.456;11.064;2023-03-14T13:02:20;96182.47;;;12.10;100.00
18323;BME280;9287;49.456;11.064;2023-03-14T13:04:52;96180.47;;;11.62;100.00
18323;BME280;9287;49.456;11.064;2023-03-14T13:07:33;96178.25;;;11.43;100.00
18323;BME280;9287;49.456;11.064;2023-03-14T13:10:04;96194.72;;;11.36;100.00
18323;BME280;9287;49.456;11.064;2023-03-14T13:12:44;96194.66;;;11.43;100.00
18323;BME280;9287;49.456;11.064;2023-03-14T13:15:19;96200.97;;;11.40;100.00
18323;BME280;9287;49.456;11.064;2023-03-14T13:17:48;96208.31;;;11.43;100.00